KADM/ADM METAR and TAF weather

Enter ICAO airport designator
Station Type Date Time Source
KADM METAR 2019/12/10 02:55 UTC NOAA

KADM 100255Z 35007KT 10SM OVC100 04/00 A3012


Station Type Date Time Source
KADM Decoded METAR 2019/12/10 02:55 UTC NOAA

Ardmore, Ardmore Municipal Airport, OK, United States (KADM) 34-18-11N 097-01-10W
Dec 09, 2019 - 09:55 PM EST / 2019.12.10 0255 UTC
Wind: from the N (350 degrees) at 8 MPH (7 KT):0
Visibility: 10 mile(s):0
Sky conditions: overcast
Temperature: 39 F (4 C)
Dew Point: 32 F (0 C)
Relative Humidity: 75%
Pressure (altimeter): 30.12 in. Hg (1019 hPa)
ob: KADM 100255Z 35007KT 10SM OVC100 04/00 A3012
cycle: 3

Station Type Date Time Source
KADM TAF UTC NOAA

Error!

Example: see airport list